Time;durP1;ratioP1;P1;durP2;ratioP2;P2;SDS_P1;SDS_P2;PMS_P1;PMS_P2;Temp;Humidity;BMP_temperature;BMP_pressure;BME280_temperature;BME280_humidity;BME280_pressure;Samples;Min_cycle;Max_cycle;Signal;HPM_P1;HPM_P2
2021/04/11 00:00:27;;;;;;;8.75;6.82;;;;;;;11.01;73.38;98904.97;5056398;28;20057;-82
2021/04/11 00:02:54;;;;;;;10.77;7.32;;;;;;;11.06;73.08;98909.88;5038797;28;20048;-82
2021/04/11 00:05:23;;;;;;;9.25;7.13;;;;;;;11.06;73.31;98904.63;5056425;28;20044;-82
2021/04/11 00:07:50;;;;;;;9.32;6.68;;;;;;;11.07;73.18;98901.88;5038908;28;20070;-82
2021/04/11 00:10:26;;;;;;;9.98;6.72;;;;;;;11.06;73.51;98896.72;5056343;28;20098;-82
2021/04/11 00:12:52;;;;;;;9.82;6.78;;;;;;;11.09;73.32;98893.88;5038814;28;20057;-82
2021/04/11 00:15:19;;;;;;;12.20;7.07;;;;;;;11.08;73.34;98893.03;5038492;28;20052;-82
2021/04/11 00:17:45;;;;;;;8.10;6.80;;;;;;;11.10;73.15;98892.91;5038706;28;20049;-82
2021/04/11 00:20:12;;;;;;;9.02;6.60;;;;;;;11.11;73.36;98891.13;5038599;28;20060;-82
2021/04/11 00:22:39;;;;;;;10.10;7.65;;;;;;;11.10;73.32;98886.81;5056309;28;20136;-82
2021/04/11 00:25:07;;;;;;;11.57;6.47;;;;;;;11.12;73.38;98887.53;5038225;28;20119;-82
2021/04/11 00:27:33;;;;;;;11.82;7.18;;;;;;;11.12;73.49;98880.47;5038718;28;20049;-83
2021/04/11 00:29:59;;;;;;;8.27;6.00;;;;;;;11.13;73.42;98876.03;5038201;28;20049;-83
2021/04/11 00:32:26;;;;;;;7.97;6.50;;;;;;;11.15;73.51;98866.25;5038400;28;20049;-82
2021/04/11 00:34:52;;;;;;;9.13;6.47;;;;;;;11.15;73.48;98869.72;5055783;28;20048;-82
2021/04/11 00:37:19;;;;;;;10.65;6.57;;;;;;;11.16;73.74;98867.91;5038284;28;20417;-82
2021/04/11 00:39:45;;;;;;;8.73;7.03;;;;;;;11.17;73.49;98869.59;5055845;28;20554;-82
2021/04/11 00:42:18;;;;;;;11.52;6.35;;;;;;;11.17;73.67;98864.31;5055921;28;20118;-82
2021/04/11 00:44:45;;;;;;;9.35;6.82;;;;;;;11.19;73.57;98863.28;5055782;28;20051;-82
2021/04/11 00:47:12;;;;;;;9.98;6.25;;;;;;;11.21;73.49;98857.88;5038241;28;20049;-82
2021/04/11 00:49:42;;;;;;;8.48;6.13;;;;;;;11.21;73.34;98855.22;5055639;28;20486;-82
2021/04/11 00:52:11;;;;;;;9.00;6.20;;;;;;;11.21;73.56;98848.19;5055735;28;20111;-82
2021/04/11 00:54:37;;;;;;;8.23;6.13;;;;;;;11.22;73.64;98841.13;5055734;28;20118;-83
2021/04/11 00:57:06;;;;;;;7.32;5.93;;;;;;;11.24;73.45;98846.25;5055234;28;20088;-82
2021/04/11 00:59:33;;;;;;;8.77;6.88;;;;;;;11.23;73.76;98845.44;5055238;28;20052;-83
2021/04/11 01:01:59;;;;;;;8.77;6.25;;;;;;;11.24;73.70;98849.75;5055720;28;20045;-83
2021/04/11 01:04:26;;;;;;;6.72;5.55;;;;;;;11.24;73.74;98846.25;5037574;28;20127;-83
2021/04/11 01:06:59;;;;;;;7.70;6.35;;;;;;;11.23;73.90;98842.81;5037811;28;20049;-83
2021/04/11 01:09:38;;;;;;;9.60;5.70;;;;;;;11.24;73.90;98843.63;5055420;28;20103;-82
2021/04/11 01:12:08;;;;;;;7.55;5.43;;;;;;;11.24;73.61;98836.56;5055685;28;20056;-83
2021/04/11 01:14:38;;;;;;;7.25;5.20;;;;;;;11.25;74.14;98830.34;5037626;28;20057;-83
2021/04/11 01:17:10;;;;;;;7.85;5.88;;;;;;;11.25;74.02;98835.63;5055362;28;20045;-83
2021/04/11 01:19:39;;;;;;;8.13;5.63;;;;;;;11.26;73.99;98828.56;5055111;28;20098;-83
2021/04/11 01:22:37;;;;;;;9.02;5.82;;;;;;;11.23;74.40;98834.91;5037204;28;20052;-83
2021/04/11 01:25:16;;;;;;;8.90;5.05;;;;;;;11.25;74.08;98829.53;5054908;28;20139;-83
2021/04/11 01:27:43;;;;;;;8.25;5.18;;;;;;;11.28;74.06;98824.84;5037277;28;20128;-83
2021/04/11 01:30:22;;;;;;;7.40;5.50;;;;;;;11.25;74.23;98821.63;5054741;28;20048;-83
2021/04/11 01:32:50;;;;;;;6.50;5.28;;;;;;;11.28;73.97;98827.50;5054736;28;20053;-84
2021/04/11 01:35:19;;;;;;;7.45;5.65;;;;;;;11.28;73.95;98814.31;5036838;28;20079;-83
2021/04/11 01:37:45;;;;;;;9.32;4.90;;;;;;;11.30;73.99;98815.06;5037276;28;20421;-83
2021/04/11 01:40:15;;;;;;;8.63;5.43;;;;;;;11.29;74.22;98823.06;5054920;28;20092;-83
2021/04/11 01:42:42;;;;;;;9.32;5.35;;;;;;;11.29;74.10;98816.00;5054768;28;20056;-83
2021/04/11 01:45:13;;;;;;;6.20;5.30;;;;;;;11.30;74.07;98817.69;5054215;28;20413;-83
2021/04/11 01:47:39;;;;;;;12.48;5.78;;;;;;;11.31;74.17;98808.81;5054792;28;20052;-83
2021/04/11 01:50:08;;;;;;;5.97;5.10;;;;;;;11.31;74.19;98808.81;5036807;28;20056;-83
2021/04/11 01:52:37;;;;;;;6.57;5.25;;;;;;;11.32;74.21;98810.50;5054768;28;20448;-82
2021/04/11 01:55:04;;;;;;;7.95;5.45;;;;;;;11.33;74.18;98806.09;5054203;28;20055;-82
2021/04/11 01:57:33;;;;;;;7.60;4.95;;;;;;;11.34;74.29;98795.41;5036658;28;20052;-83
2021/04/11 02:00:36;;;;;;;10.95;5.18;;;;;;;11.32;74.37;98797.31;5036582;28;20094;-83
2021/04/11 02:03:08;;;;;;;6.35;4.88;;;;;;;11.37;74.02;98791.72;4977036;28;20050;-83
2021/04/11 02:05:39;;;;;;;7.43;4.90;;;;;;;11.38;74.17;98793.38;5044659;28;20448;-83
2021/04/11 02:08:08;;;;;;;5.57;4.45;;;;;;;11.40;74.04;98785.38;5036603;28;20478;-83
2021/04/11 02:10:37;;;;;;;7.57;5.13;;;;;;;11.39;73.97;98792.44;5036601;28;20053;-83
2021/04/11 02:13:05;;;;;;;8.18;5.18;;;;;;;11.40;74.07;98788.81;5036401;28;20102;-83
2021/04/11 02:15:35;;;;;;;8.15;5.05;;;;;;;11.39;74.16;98781.03;5053738;28;20567;-83
2021/04/11 02:18:02;;;;;;;8.25;5.03;;;;;;;11.40;74.18;98783.56;5036911;28;20063;-82
2021/04/11 02:20:30;;;;;;;8.00;5.57;;;;;;;11.40;74.01;98786.19;5054163;28;20387;-83
2021/04/11 02:22:56;;;;;;;6.13;4.68;;;;;;;11.38;74.30;98782.84;5036645;28;20059;-83
2021/04/11 02:25:27;;;;;;;7.55;5.18;;;;;;;11.37;74.19;98778.53;5053678;28;20064;-83
2021/04/11 02:27:54;;;;;;;5.93;4.90;;;;;;;11.38;74.08;98779.38;5054160;28;20053;-83
2021/04/11 02:30:23;;;;;;;6.30;4.78;;;;;;;11.37;74.24;98778.53;5054067;28;20058;-83
2021/04/11 02:32:50;;;;;;;6.22;4.95;;;;;;;11.37;74.17;98781.19;5053833;28;20095;-82
2021/04/11 02:35:21;;;;;;;8.38;4.85;;;;;;;11.37;74.23;98780.31;5053641;28;20053;-82
2021/04/11 02:37:53;;;;;;;8.93;5.45;;;;;;;11.36;74.29;98783.94;5053735;28;20102;-82
2021/04/11 02:40:25;;;;;;;8.37;5.60;;;;;;;11.33;74.37;98767.38;5052910;28;20055;-83
2021/04/11 02:42:52;;;;;;;6.50;4.53;;;;;;;11.37;74.32;98785.59;5034631;28;20250;-83
2021/04/11 02:45:25;;;;;;;9.18;4.55;;;;;;;11.33;74.32;98774.47;5035313;28;20055;-82
2021/04/11 02:47:52;;;;;;;;;;;;;;;11.36;74.37;98778.66;5036121;28;20489;-82
2021/04/11 02:50:18;;;;;;;9.15;4.93;;;;;;;11.39;73.96;98775.75;5035871;28;19921;-82
2021/04/11 02:52:53;;;;;;;7.20;5.03;;;;;;;11.35;74.16;98775.16;5053713;28;20055;-82
2021/04/11 02:55:19;;;;;;;6.47;5.20;;;;;;;11.37;74.26;98772.44;5035514;28;20485;-82
2021/04/11 02:57:46;;;;;;;9.93;5.80;;;;;;;11.37;74.35;98777.69;5052721;28;20456;-82
2021/04/11 03:00:19;;;;;;;7.90;5.43;;;;;;;11.33;74.46;98779.72;5035667;28;20057;-83
2021/04/11 03:02:46;;;;;;;8.45;5.75;;;;;;;11.36;74.65;98776.03;5035662;28;20056;-82
2021/04/11 03:05:15;;;;;;;7.00;6.15;;;;;;;11.34;74.85;98779.59;5035694;28;20428;-82
2021/04/11 03:07:51;;;;;;;8.80;5.88;;;;;;;11.33;74.61;98779.72;5053572;28;20056;-82
2021/04/11 03:10:20;;;;;;;8.48;6.30;;;;;;;11.34;74.74;98784.84;5035538;28;20107;-82
2021/04/11 03:12:48;;;;;;;8.13;6.97;;;;;;;11.33;74.83;98785.00;5035760;28;20052;-83
2021/04/11 03:15:15;;;;;;;9.30;7.60;;;;;;;11.32;74.90;98784.16;5035501;28;20096;-82
2021/04/11 03:17:43;;;;;;;8.75;6.95;;;;;;;11.32;74.79;98784.16;5053021;28;20565;-82
2021/04/11 03:20:17;;;;;;;10.88;9.77;;;;;;;11.30;74.49;98786.06;5035537;28;20053;-82
2021/04/11 03:22:44;;;;;;;12.10;10.77;;;;;;;11.31;74.19;98784.25;5035631;28;20056;-82
2021/04/11 03:25:12;;;;;;;14.07;11.95;;;;;;;11.28;73.73;98790.59;5035201;28;20044;-82
2021/04/11 03:27:46;;;;;;;13.15;11.55;;;;;;;11.24;73.48;98793.56;5053306;28;20049;-82
2021/04/11 03:30:28;;;;;;;15.45;13.20;;;;;;;11.18;73.39;98790.47;5053152;28;20053;-82
2021/04/11 03:33:00;;;;;;;14.10;12.05;;;;;;;11.16;73.40;98795.00;5053193;28;20049;-82
2021/04/11 03:35:29;;;;;;;14.83;12.80;;;;;;;11.13;73.56;98795.22;5035029;28;20489;-82
2021/04/11 03:37:58;;;;;;;14.20;12.40;;;;;;;11.08;73.34;98794.75;5035534;28;20049;-82
2021/04/11 03:40:27;;;;;;;13.77;11.75;;;;;;;11.04;73.31;98795.94;5052987;28;20060;-82
2021/04/11 03:43:17;;;;;;;12.18;10.65;;;;;;;10.98;73.09;98804.28;5035477;28;20071;-82
2021/04/11 03:45:43;;;;;;;12.90;10.57;;;;;;;10.95;73.17;98810.59;5034671;28;20049;-82
2021/04/11 03:48:26;;;;;;;11.50;10.18;;;;;;;10.88;72.85;98806.75;5053031;28;20053;-82
2021/04/11 03:51:05;;;;;;;11.48;10.05;;;;;;;10.78;72.54;98812.72;5035297;28;20086;-82
2021/04/11 03:53:42;;;;;;;11.15;9.52;;;;;;;10.72;72.67;98814.94;5053118;28;20056;-83
2021/04/11 03:56:12;;;;;;;11.30;9.73;;;;;;;10.67;72.94;98815.28;5052601;28;20045;-82
2021/04/11 03:58:47;;;;;;;11.73;10.02;;;;;;;10.60;72.82;98811.41;5035314;28;20052;-82
2021/04/11 04:01:20;;;;;;;11.30;9.68;;;;;;;10.54;73.25;98810.03;5052903;28;20056;-82
2021/04/11 04:03:49;;;;;;;10.98;9.55;;;;;;;10.52;73.67;98811.97;5035065;28;20049;-82
2021/04/11 04:06:30;;;;;;;9.48;7.72;;;;;;;10.45;73.19;98816.81;5052978;28;20072;-82
2021/04/11 04:08:56;;;;;;;7.10;6.38;;;;;;;10.46;73.54;98818.50;5037153;28;20049;-82
2021/04/11 04:11:53;;;;;;;4.97;4.47;;;;;;;10.37;73.04;98838.41;5038526;28;20052;-82
2021/04/11 04:14:27;;;;;;;4.25;3.85;;;;;;;10.34;72.77;98846.50;5056063;28;20481;-82
2021/04/11 04:17:09;;;;;;;3.97;3.58;;;;;;;10.29;73.01;98844.19;5056483;28;20057;-82
2021/04/11 04:19:51;;;;;;;4.55;4.13;;;;;;;10.23;72.59;98852.50;5038855;28;20141;-82
2021/04/11 04:22:31;;;;;;;6.03;4.53;;;;;;;10.19;72.37;98855.44;5056116;28;20049;-82
2021/04/11 04:25:00;;;;;;;6.22;4.57;;;;;;;10.11;72.22;98870.00;5101400;22;20045;-89
2021/04/11 04:31:20;;;;;;;4.90;4.40;;;;;;;9.90;72.11;98877.56;5093854;28;20087;-89
2021/04/11 04:34:19;;;;;;;5.00;4.50;;;;;;;9.82;71.92;98883.34;5079034;28;20139;-88
2021/04/11 04:37:14;;;;;;;6.20;5.30;;;;;;;9.69;71.69;98885.13;5078174;28;20044;-89
2021/04/11 04:39:53;;;;;;;6.05;5.03;;;;;;;9.60;71.81;98891.84;5078048;28;20044;-89
2021/04/11 04:42:59;;;;;;;5.05;4.28;;;;;;;9.50;71.88;98895.06;5078477;28;20055;-89
2021/04/11 04:45:37;;;;;;;4.68;4.05;;;;;;;9.44;72.08;98899.91;5078428;28;20048;-89
2021/04/11 04:48:14;;;;;;;4.47;4.07;;;;;;;9.35;72.11;98901.38;5078023;28;20044;-89
2021/04/11 04:50:53;;;;;;;4.90;4.13;;;;;;;9.26;72.11;98894.91;5078076;28;20055;-89
2021/04/11 04:53:36;;;;;;;3.33;3.03;;;;;;;9.19;71.94;98893.66;5078104;28;20052;-90
2021/04/11 04:56:05;;;;;;;3.35;3.00;;;;;;;9.15;71.95;98882.50;5077617;28;20055;-89
2021/04/11 04:58:40;;;;;;;5.63;3.17;;;;;;;9.05;72.23;98871.75;5095850;28;20044;-88
2021/04/11 05:01:49;;;;;;;3.70;3.28;;;;;;;8.96;72.14;98873.19;5078027;28;20151;-88
2021/04/11 05:04:39;;;;;;;;;;;;;;;;;;;;;
2021/04/11 05:08:33;;;;;;;;;;;;;;;;;;;;;
2021/04/11 05:15:59;;;;;;;2.33;2.13;;;;;;;8.76;72.53;98874.47;4897455;29;20108;-88
2021/04/11 05:27:35;;;;;;;2.63;2.42;;;;;;;8.61;72.71;98913.03;4859689;29;20073;-87
2021/04/11 05:53:43;;;;;;;;;;;;;;;;;;;;;
2021/04/11 05:56:58;;;;;;;77.00;5.85;;;;;;;8.06;72.08;98934.63;4887069;29;20063;-87
2021/04/11 06:00:03;;;;;;;53.47;5.72;;;;;;;7.99;72.01;98953.44;4872250;28;20052;-87
2021/04/11 06:07:19;;;;;;;21.08;4.80;;;;;;;7.81;72.43;98962.28;5071591;22;20052;-86
2021/04/11 06:10:18;;;;;;;14.00;3.80;;;;;;;7.74;72.26;98952.25;5064618;28;20086;-86
2021/04/11 06:15:55;;;;;;;22.60;4.38;;;;;;;7.65;72.37;98956.25;5130529;22;20052;-85
2021/04/11 06:18:22;;;;;;;7.30;3.85;;;;;;;7.63;73.21;98966.81;5091538;28;20082;-85
2021/04/11 06:20:51;;;;;;;9.82;3.90;;;;;;;7.60;72.89;98971.38;5096209;28;20057;-85
2021/04/11 06:23:32;;;;;;;17.40;4.13;;;;;;;7.55;72.60;98982.09;5075536;28;20071;-84
2021/04/11 06:26:02;;;;;;;13.13;4.35;;;;;;;7.55;73.22;98993.44;5093229;28;20412;-85
2021/04/11 06:28:37;;;;;;;17.52;4.50;;;;;;;7.53;72.91;98990.09;5078207;28;20131;-85
2021/04/11 06:31:11;;;;;;;45.88;5.25;;;;;;;7.52;72.73;98995.41;5073227;28;20071;-86
2021/04/11 06:33:43;;;;;;;62.55;5.93;;;;;;;7.53;73.28;98999.69;5055269;28;20143;-84
2021/04/11 06:36:13;;;;;;;60.65;6.05;;;;;;;7.53;73.16;99010.19;5073277;28;20052;-85
2021/04/11 06:38:47;;;;;;;23.17;5.88;;;;;;;7.53;73.04;98997.09;5055828;28;20119;-84
2021/04/11 06:41:38;;;;;;;44.75;5.30;;;;;;;7.51;72.66;99006.81;5055886;28;20056;-85
2021/04/11 06:44:28;;;;;;;16.05;5.07;;;;;;;7.50;72.50;98995.47;5054939;28;20049;-85
2021/04/11 06:47:29;;;;;;;81.30;6.80;;;;;;;7.49;72.24;99014.75;5073210;28;20051;-86
2021/04/11 06:50:32;;;;;;;46.10;7.47;;;;;;;7.46;72.47;99029.78;5055430;28;20049;-84
2021/04/11 06:53:29;;;;;;;44.88;7.93;;;;;;;7.46;72.51;99019.28;5073636;28;20078;-85
2021/04/11 06:55:58;;;;;;;40.20;6.47;;;;;;;7.48;73.05;99035.78;5072806;28;20049;-85
2021/04/11 06:58:35;;;;;;;100.28;8.88;;;;;;;7.46;72.57;99048.97;5073263;28;20048;-85
2021/04/11 07:01:22;;;;;;;111.28;9.60;;;;;;;7.43;72.50;99039.50;5073051;28;20501;-85
2021/04/11 07:04:21;;;;;;;119.32;9.80;;;;;;;7.43;72.50;99047.34;5072719;28;20088;-84
2021/04/11 07:06:56;;;;;;;24.02;6.82;;;;;;;7.42;72.62;99045.69;5054944;28;20041;-85
2021/04/11 07:09:50;;;;;;;37.90;5.60;;;;;;;7.41;72.50;99038.72;5055022;28;20493;-85
2021/04/11 07:12:54;;;;;;;35.42;6.15;;;;;;;7.41;72.60;99048.38;5055236;28;20053;-86
2021/04/11 07:15:44;;;;;;;13.88;4.85;;;;;;;7.43;72.52;99046.50;5072070;28;20045;-85
2021/04/11 07:18:28;;;;;;;6.32;4.97;;;;;;;7.41;72.68;99038.72;5055122;28;20044;-85
2021/04/11 07:21:32;;;;;;;10.43;5.47;;;;;;;7.39;72.27;99043.22;5055332;28;20057;-86
2021/04/11 07:24:19;;;;;;;6.47;5.03;;;;;;;7.38;72.40;99056.38;5054479;28;20071;-84
2021/04/11 07:27:19;;;;;;;15.15;5.32;;;;;;;7.36;72.33;99061.72;5054898;28;20550;-85
2021/04/11 07:30:22;;;;;;;27.90;5.53;;;;;;;7.36;72.20;99050.41;5072999;28;20102;-86
2021/04/11 07:33:16;;;;;;;12.67;4.90;;;;;;;7.36;72.25;99064.31;5055143;28;20053;-86
2021/04/11 07:36:00;;;;;;;10.48;5.40;;;;;;;7.33;72.06;99071.50;5072507;28;20278;-86
2021/04/11 07:38:47;;;;;;;7.03;4.60;;;;;;;7.32;72.27;99085.53;5055117;28;20076;-86
2021/04/11 07:41:31;;;;;;;6.32;4.30;;;;;;;7.31;72.14;99089.91;5055135;28;20056;-85
2021/04/11 07:44:22;;;;;;;6.95;5.18;;;;;;;7.31;72.18;99089.91;5056446;28;20053;-85
2021/04/11 07:47:18;;;;;;;10.45;5.25;;;;;;;7.28;72.23;99090.94;5076736;28;20055;-84
2021/04/11 07:50:03;;;;;;;8.30;4.80;;;;;;;7.33;72.43;99102.94;5058606;28;20067;-84
2021/04/11 07:52:58;;;;;;;6.68;5.18;;;;;;;7.31;72.38;99116.09;5076625;28;20059;-86
2021/04/11 07:55:30;;;;;;;7.47;5.13;;;;;;;7.32;72.37;99125.63;5058362;28;20056;-86
2021/04/11 07:58:31;;;;;;;5.70;4.43;;;;;;;7.27;71.84;99132.91;5076559;28;20400;-85
2021/04/11 08:01:15;;;;;;;5.88;4.78;;;;;;;7.26;71.90;99137.28;5048056;28;20102;-84
2021/04/11 08:04:02;;;;;;;8.43;5.65;;;;;;;7.25;72.03;99138.22;5058196;28;20402;-84
2021/04/11 08:06:28;;;;;;;5.35;4.80;;;;;;;7.28;72.53;99147.66;5076496;28;20041;-85
2021/04/11 08:09:13;;;;;;;5.93;5.32;;;;;;;7.24;72.25;99144.38;5058792;28;20531;-84
2021/04/11 08:12:10;;;;;;;9.02;5.57;;;;;;;7.25;71.89;99159.16;5076745;28;20055;-86
2021/04/11 08:15:07;;;;;;;12.13;5.50;;;;;;;7.24;71.83;99165.31;5057985;28;20052;-84
2021/04/11 08:17:38;;;;;;;7.78;5.40;;;;;;;7.23;71.68;99165.41;5058685;28;20408;-85
2021/04/11 08:20:23;;;;;;;6.82;5.20;;;;;;;7.19;71.82;99167.34;5058385;28;20044;-85
2021/04/11 08:23:27;;;;;;;5.97;4.65;;;;;;;7.16;72.04;99170.97;5075878;28;20132;-84
2021/04/11 08:26:11;;;;;;;5.72;4.75;;;;;;;7.17;71.95;99177.88;5057232;28;20493;-86
2021/04/11 08:29:13;;;;;;;6.75;4.72;;;;;;;7.16;72.23;99191.91;5057997;28;20048;-85
2021/04/11 08:31:53;;;;;;;4.97;4.05;;;;;;;7.17;72.34;99179.66;5067549;28;20048;-84
2021/04/11 08:34:31;;;;;;;5.38;4.28;;;;;;;7.21;72.71;99186.41;5057330;28;20052;-85
2021/04/11 08:37:39;;;;;;;4.75;3.85;;;;;;;7.19;72.04;99188.28;5057843;28;20394;-85
2021/04/11 08:40:32;;;;;;;5.00;3.85;;;;;;;7.25;72.55;99189.75;5035335;28;20052;-84
2021/04/11 08:43:23;;;;;;;5.35;3.80;;;;;;;7.23;72.29;99187.19;5054752;28;20056;-85
2021/04/11 08:46:18;;;;;;;4.10;3.70;;;;;;;7.25;72.04;99184.50;5056777;28;20052;-85
2021/04/11 08:49:08;;;;;;;5.93;4.07;;;;;;;7.29;72.15;99186.03;5057355;28;20554;-85
2021/04/11 08:51:59;;;;;;;4.40;3.10;;;;;;;7.33;72.02;99192.78;5075266;28;20052;-84
2021/04/11 08:54:31;;;;;;;4.82;3.20;;;;;;;7.39;72.38;99181.13;5056253;28;20052;-85
2021/04/11 08:56:59;;;;;;;5.05;3.28;;;;;;;7.41;72.61;99195.00;5057485;28;20049;-85
2021/04/11 08:59:53;;;;;;;3.95;2.78;;;;;;;7.40;71.80;99202.00;5057465;28;20060;-85
2021/04/11 09:02:44;;;;;;;4.97;3.22;;;;;;;7.41;71.13;99195.84;5075333;28;20044;-86
2021/04/11 09:05:21;;;;;;;3.75;2.85;;;;;;;7.47;71.89;99202.53;5074636;28;20053;-84
2021/04/11 09:07:53;;;;;;;5.18;3.40;;;;;;;7.44;71.12;99207.91;5057373;28;20048;-85
2021/04/11 09:10:52;;;;;;;4.90;3.97;;;;;;;7.41;70.66;99213.34;5075135;28;20056;-86
2021/04/11 09:13:41;;;;;;;5.63;3.90;;;;;;;7.41;70.81;99213.34;5057118;28;20531;-84
2021/04/11 09:16:17;;;;;;;6.70;4.88;;;;;;;7.41;71.37;99229.06;5066741;28;20497;-84
2021/04/11 09:19:07;;;;;;;6.55;5.57;;;;;;;7.42;71.55;99244.69;5075124;28;20052;-85
2021/04/11 09:22:04;;;;;;;5.63;4.82;;;;;;;7.42;71.22;99249.91;5075169;28;20053;-84
2021/04/11 09:24:44;;;;;;;4.07;3.65;;;;;;;7.48;71.56;99253.13;5056642;28;20052;-86
2021/04/11 09:27:49;;;;;;;4.72;3.95;;;;;;;7.45;70.77;99254.16;5057126;28;20045;-84
2021/04/11 09:30:27;;;;;;;5.05;3.80;;;;;;;7.49;71.83;99254.81;5075417;28;20048;-84
2021/04/11 09:33:12;;;;;;;6.43;4.55;;;;;;;7.47;70.96;99251.44;5057140;28;20055;-85
2021/04/11 09:36:03;;;;;;;4.78;3.70;;;;;;;7.44;70.23;99252.44;5073922;28;20060;-84
2021/04/11 09:38:41;;;;;;;5.15;3.75;;;;;;;7.46;70.76;99263.69;5057518;28;20048;-85
2021/04/11 09:41:40;;;;;;;5.82;3.35;;;;;;;7.47;70.45;99267.16;5057038;28;20060;-84
2021/04/11 09:44:15;;;;;;;3.50;3.20;;;;;;;7.49;70.64;99274.00;5062080;28;20508;-84
2021/04/11 09:46:56;;;;;;;3.20;2.58;;;;;;;7.53;70.87;99280.78;5074459;28;20463;-84
2021/04/11 09:49:33;;;;;;;5.60;2.90;;;;;;;7.58;71.46;99283.16;5074863;28;20048;-86
2021/04/11 09:52:36;;;;;;;3.03;2.70;;;;;;;7.66;71.90;99274.88;5074468;28;20102;-84
2021/04/11 09:55:30;;;;;;;2.42;2.22;;;;;;;7.75;71.27;99282.28;5056481;28;20040;-84
2021/04/11 09:58:18;;;;;;;3.58;2.47;;;;;;;7.82;70.81;99296.72;5075254;28;20040;-84
2021/04/11 10:01:00;;;;;;;4.10;2.70;;;;;;;7.90;70.75;99292.88;5056484;28;20098;-84
2021/04/11 10:04:03;;;;;;;3.15;2.85;;;;;;;7.93;69.96;99290.91;5057537;28;21516;-84
2021/04/11 10:07:12;;;;;;;3.03;2.80;;;;;;;7.98;69.76;99292.44;5074292;28;20098;-84
2021/04/11 10:09:52;;;;;;;3.88;2.53;;;;;;;8.01;69.36;99294.91;5027205;28;20291;-84
2021/04/11 10:12:58;;;;;;;3.85;2.40;;;;;;;8.00;69.13;99303.72;5057200;28;20052;-84
2021/04/11 10:15:32;;;;;;;2.10;1.98;;;;;;;8.02;69.57;99304.44;5073820;28;20158;-84
2021/04/11 10:18:10;;;;;;;2.55;1.95;;;;;;;8.01;69.40;99305.38;5074756;28;20451;-84
2021/04/11 10:21:08;;;;;;;2.55;1.88;;;;;;;7.97;69.55;99303.84;5074897;28;20055;-84
2021/04/11 10:24:06;;;;;;;2.83;1.90;;;;;;;7.98;69.48;99306.41;5074320;28;20072;-84
2021/04/11 10:26:46;;;;;;;3.22;1.50;;;;;;;8.04;69.90;99303.44;5056199;28;20572;-84
2021/04/11 10:29:20;;;;;;;3.60;1.52;;;;;;;8.10;69.42;99310.13;5056801;28;20048;-84
2021/04/11 10:32:08;;;;;;;1.30;1.20;;;;;;;8.14;68.92;99311.66;5056665;28;20074;-84
2021/04/11 10:34:41;;;;;;;2.63;1.45;;;;;;;8.23;69.37;99320.81;5056265;28;20044;-84
2021/04/11 10:37:35;;;;;;;2.53;1.48;;;;;;;8.24;68.22;99314.63;5074100;28;20044;-84
2021/04/11 10:40:07;;;;;;;1.63;1.10;;;;;;;8.33;69.90;99334.25;5074507;28;20064;-84
2021/04/11 10:42:46;;;;;;;1.38;1.23;;;;;;;8.32;68.38;99337.81;5056286;28;20060;-84
2021/04/11 10:45:45;;;;;;;1.88;1.40;;;;;;;8.33;68.16;99342.13;5056096;28;20056;-83
2021/04/11 10:48:51;;;;;;;1.80;1.27;;;;;;;8.33;67.26;99344.75;5056225;28;20048;-84
2021/04/11 10:51:23;;;;;;;1.98;1.50;;;;;;;8.34;68.28;99342.03;5073776;28;20048;-84
2021/04/11 10:54:07;;;;;;;3.20;1.40;;;;;;;8.34;67.65;99346.47;5074022;28;20052;-83
2021/04/11 10:57:06;;;;;;;3.10;1.70;;;;;;;8.34;67.76;99357.78;5055803;28;20451;-84
2021/04/11 10:59:57;;;;;;;2.55;1.40;;;;;;;8.35;67.54;99358.63;5073866;28;20059;-83
2021/04/11 11:02:50;;;;;;;5.00;1.40;;;;;;;8.35;67.67;99364.72;5074351;28;20040;-84
2021/04/11 11:05:40;;;;;;;2.40;1.40;;;;;;;8.41;68.91;99367.94;5055947;28;20135;-83
2021/04/11 11:08:18;;;;;;;5.03;2.05;;;;;;;8.37;67.10;99371.66;5074355;28;20040;-84
2021/04/11 11:10:56;;;;;;;6.03;1.60;;;;;;;8.36;68.07;99370.81;5057443;28;20053;-83
2021/04/11 11:13:28;;;;;;;2.72;1.70;;;;;;;8.32;67.46;99378.00;5057219;28;20106;-84
2021/04/11 11:16:07;;;;;;;2.58;1.67;;;;;;;8.27;67.21;99368.69;5056413;28;20075;-84
2021/04/11 11:18:42;;;;;;;2.25;1.42;;;;;;;8.28;68.96;99368.59;5075445;28;20452;-84
2021/04/11 11:21:29;;;;;;;4.13;1.50;;;;;;;8.26;68.00;99380.09;5078115;28;20052;-84
2021/04/11 11:24:04;;;;;;;2.75;1.77;;;;;;;8.28;64.86;99391.34;5059640;28;20063;-84
2021/04/11 11:26:45;;;;;;;3.50;1.52;;;;;;;8.28;67.02;99394.81;5060452;28;20057;-84
2021/04/11 11:29:50;;;;;;;4.35;1.30;;;;;;;8.27;67.05;99398.38;5060179;28;20056;-84
2021/04/11 11:32:24;;;;;;;3.30;1.23;;;;;;;8.30;67.37;99400.00;5039127;28;20481;-84
2021/04/11 11:35:00;;;;;;;2.65;1.10;;;;;;;8.27;67.34;99398.38;5059630;28;20052;-84
2021/04/11 11:37:57;;;;;;;2.50;1.10;;;;;;;8.28;66.45;99399.22;5059741;28;20052;-83
2021/04/11 11:40:35;;;;;;;2.45;0.93;;;;;;;8.30;66.69;99408.69;5077655;28;20053;-84
2021/04/11 11:43:17;;;;;;;3.42;0.93;;;;;;;8.32;66.76;99421.72;5059365;28;20056;-84
2021/04/11 11:46:10;;;;;;;4.00;1.10;;;;;;;8.33;66.64;99431.28;5077239;28;20060;-84
2021/04/11 11:48:58;;;;;;;1.08;0.93;;;;;;;8.34;66.35;99435.63;5059391;28;20052;-84
2021/04/11 11:51:51;;;;;;;1.33;0.85;;;;;;;8.34;66.08;99446.13;5077024;28;20057;-83
2021/04/11 11:54:39;;;;;;;3.72;0.90;;;;;;;8.34;65.65;99451.34;5076617;28;20045;-84
2021/04/11 11:57:11;;;;;;;2.88;1.10;;;;;;;8.37;67.12;99450.34;5076925;28;20049;-84
2021/04/11 11:59:43;;;;;;;4.53;1.02;;;;;;;8.33;66.13;99452.25;5059457;28;20067;-84
2021/04/11 12:02:35;;;;;;;3.47;0.77;;;;;;;8.31;66.66;99448.88;5076842;28;20055;-84
2021/04/11 12:05:12;;;;;;;3.70;1.00;;;;;;;8.26;65.60;99445.66;5076204;28;20087;-84
2021/04/11 12:07:48;;;;;;;1.48;0.73;;;;;;;8.25;66.05;99446.56;5076755;28;20065;-84
2021/04/11 12:10:40;;;;;;;3.70;0.98;;;;;;;8.24;65.94;99452.75;5059016;28;20056;-84
2021/04/11 12:13:47;;;;;;;2.15;1.27;;;;;;;8.24;66.09;99450.97;5059911;28;20106;-84
2021/04/11 12:16:28;;;;;;;1.77;1.05;;;;;;;8.25;66.19;99444.81;5094833;22;20045;-85
2021/04/11 12:18:58;;;;;;;1.45;0.93;;;;;;;8.29;67.44;99456.84;5069146;28;20492;-85
2021/04/11 12:21:37;;;;;;;1.45;0.98;;;;;;;8.27;66.56;99466.56;5076513;28;20139;-85
2021/04/11 12:24:07;;;;;;;3.63;1.00;;;;;;;8.30;67.71;99471.63;5068727;28;20052;-85
2021/04/11 12:26:34;;;;;;;4.65;1.20;;;;;;;8.34;68.00;99472.34;5075558;28;20040;-85
2021/04/11 12:29:10;;;;;;;4.30;1.13;;;;;;;8.39;67.07;99478.19;5075512;28;20075;-85
2021/04/11 12:31:44;;;;;;;2.63;1.05;;;;;;;8.49;67.17;99486.41;5075773;28;20543;-85
2021/04/11 12:34:29;;;;;;;2.60;1.25;;;;;;;8.57;66.50;99489.50;5057469;28;20131;-85
2021/04/11 12:37:15;;;;;;;3.35;1.00;;;;;;;8.66;66.00;99482.91;5075525;28;20443;-85
2021/04/11 12:39:41;;;;;;;2.60;0.93;;;;;;;8.78;67.35;99488.44;5075655;28;20053;-85
2021/04/11 12:42:41;;;;;;;1.75;0.82;;;;;;;8.78;64.89;99491.91;5075799;28;20450;-85
2021/04/11 12:45:20;;;;;;;3.63;1.08;;;;;;;8.84;65.64;99491.59;5056248;28;20512;-85
2021/04/11 12:48:13;;;;;;;2.08;0.73;;;;;;;8.83;64.82;99499.53;5075725;28;20044;-85
2021/04/11 12:51:05;;;;;;;2.13;1.00;;;;;;;8.84;65.06;99507.34;5075716;28;20053;-85
2021/04/11 12:53:51;;;;;;;3.10;0.90;;;;;;;8.87;65.29;99506.31;5030846;28;20071;-85
2021/04/11 12:56:19;;;;;;;6.72;0.98;;;;;;;8.88;66.08;99509.78;5075336;28;20462;-85
2021/04/11 12:59:00;;;;;;;2.38;1.10;;;;;;;8.85;65.73;99514.28;5075214;28;20051;-85
2021/04/11 13:01:36;;;;;;;2.85;1.10;;;;;;;8.89;65.30;99527.25;5075235;28;20060;-85
2021/04/11 13:04:15;;;;;;;1.50;0.80;;;;;;;8.90;64.98;99535.00;5074396;28;20106;-85
2021/04/11 13:07:14;;;;;;;1.35;0.80;;;;;;;8.90;64.36;99536.81;5075101;28;20550;-85
2021/04/11 13:10:07;;;;;;;8.45;0.90;;;;;;;8.89;64.28;99535.94;5075245;28;20052;-85
2021/04/11 13:12:56;;;;;;;1.25;0.90;;;;;;;8.89;64.57;99550.88;5075529;28;20057;-85
2021/04/11 13:15:35;;;;;;;1.17;0.90;;;;;;;8.90;65.49;99550.75;5074235;28;20079;-85
2021/04/11 13:18:04;;;;;;;2.40;0.90;;;;;;;8.90;64.87;99548.13;5074927;28;20052;-85
2021/04/11 13:20:46;;;;;;;2.67;1.08;;;;;;;8.89;63.65;99556.13;5074777;28;20056;-85
2021/04/11 13:23:21;;;;;;;3.40;1.45;;;;;;;8.92;64.47;99556.78;5074909;28;20489;-85
2021/04/11 13:26:00;;;;;;;1.52;1.00;;;;;;;8.94;64.73;99552.28;5073948;28;20504;-85
2021/04/11 13:28:55;;;;;;;2.08;0.90;;;;;;;8.98;63.94;99559.06;5057065;28;20049;-85
2021/04/11 13:31:43;;;;;;;2.17;0.88;;;;;;;9.04;63.80;99565.78;5074857;28;20044;-85